Time;durP1;ratioP1;P1;durP2;ratioP2;P2;SDS_P1;SDS_P2;PMS_P1;PMS_P2;Temp;Humidity;BMP_temperature;BMP_pressure;BME280_temperature;BME280_humidity;BME280_pressure;Samples;Min_cycle;Max_cycle;Signal;HPM_P1;HPM_P2
2022/10/05 00:00:24;;;;;;;4.63;4.43;;;;;;;;;;5000953;28;20062;-70
2022/10/05 00:02:51;;;;;;;4.40;4.20;;;;;;;;;;5004373;28;20088;-71
2022/10/05 00:05:22;;;;;;;4.30;4.10;;;;;;;;;;4999097;28;20061;-71
2022/10/05 00:07:48;;;;;;;4.32;4.13;;;;;;;;;;5003135;28;20321;-71
2022/10/05 00:10:16;;;;;;;4.22;4.03;;;;;;;;;;5000612;28;20038;-72
2022/10/05 00:12:47;;;;;;;4.30;4.10;;;;;;;;;;5001117;28;20501;-71
2022/10/05 00:15:15;;;;;;;4.45;4.25;;;;;;;;;;5006309;28;20061;-71
2022/10/05 00:17:41;;;;;;;4.10;3.90;;;;;;;;;;5008217;28;20478;-71
2022/10/05 00:20:16;;;;;;;4.22;4.03;;;;;;;;;;5002443;28;20060;-71
2022/10/05 00:22:42;;;;;;;4.22;4.03;;;;;;;;;;5004422;28;20065;-71
2022/10/05 00:25:14;;;;;;;4.40;4.20;;;;;;;;;;5000737;28;20544;-70
2022/10/05 00:27:40;;;;;;;4.47;4.28;;;;;;;;;;5004059;28;20125;-70
2022/10/05 00:30:11;;;;;;;4.60;4.40;;;;;;;;;;5003525;28;20040;-71
2022/10/05 00:32:37;;;;;;;4.60;4.40;;;;;;;;;;4999634;28;20026;-70
2022/10/05 00:35:03;;;;;;;4.57;4.38;;;;;;;;;;5003000;28;20282;-71
2022/10/05 00:37:29;;;;;;;3.90;3.80;;;;;;;;;;4995263;28;20106;-71
2022/10/05 00:39:55;;;;;;;4.55;4.35;;;;;;;;;;5019634;28;20506;-71
2022/10/05 00:42:50;;;;;;;4.80;4.60;;;;;;;;;;5006430;28;20289;-70
2022/10/05 00:46:06;;;;;;;4.35;4.15;;;;;;;;;;4999178;28;20045;-71
2022/10/05 00:48:50;;;;;;;4.20;4.00;;;;;;;;;;4950444;28;20081;-72
2022/10/05 00:51:42;;;;;;;4.20;4.00;;;;;;;;;;4999097;28;20396;-71
2022/10/05 00:54:37;;;;;;;4.18;3.97;;;;;;;;;;4996040;28;20471;-72
2022/10/05 00:57:29;;;;;;;4.32;4.13;;;;;;;;;;5004017;28;20057;-70
2022/10/05 01:00:05;;;;;;;4.60;4.40;;;;;;;;;;5006665;28;20026;-72
2022/10/05 01:02:53;;;;;;;4.70;4.50;;;;;;;;;;4990686;28;20038;-71
2022/10/05 01:05:24;;;;;;;4.50;4.30;;;;;;;;;;4994270;28;20030;-71
2022/10/05 01:08:16;;;;;;;4.35;4.15;;;;;;;;;;5002547;28;20109;-71
2022/10/05 01:10:48;;;;;;;4.55;4.35;;;;;;;;;;4998369;28;20034;-71
2022/10/05 01:13:28;;;;;;;4.60;4.40;;;;;;;;;;5007104;28;20038;-71
2022/10/05 01:15:53;;;;;;;;;;;;;;;;;;5006094;28;20125;-71
2022/10/05 01:18:38;;;;;;;4.80;4.60;;;;;;;;;;5006462;28;20359;-71
2022/10/05 01:21:21;;;;;;;4.50;4.30;;;;;;;;;;4997113;28;20053;-72
2022/10/05 01:24:12;;;;;;;4.60;4.40;;;;;;;;;;4995497;28;20033;-72
2022/10/05 01:27:02;;;;;;;4.65;4.45;;;;;;;;;;4994117;28;20434;-69
2022/10/05 01:29:38;;;;;;;4.80;4.60;;;;;;;;;;5005007;28;20374;-71
2022/10/05 01:32:27;;;;;;;4.25;4.05;;;;;;;;;;4999785;28;20491;-70
2022/10/05 01:35:02;;;;;;;4.30;4.10;;;;;;;;;;4995241;28;20049;-71
2022/10/05 01:37:45;;;;;;;4.35;4.15;;;;;;;;;;5000222;28;20408;-71
2022/10/05 01:40:17;;;;;;;4.22;4.03;;;;;;;;;;5007822;28;20042;-71
2022/10/05 01:43:00;;;;;;;4.47;4.28;;;;;;;;;;4995568;28;20042;-72
2022/10/05 01:45:44;;;;;;;4.30;4.10;;;;;;;;;;4997504;28;20417;-72
2022/10/05 01:48:25;;;;;;;4.40;4.20;;;;;;;;;;5005236;28;20100;-72
2022/10/05 01:50:59;;;;;;;4.25;4.05;;;;;;;;;;4996974;28;20121;-70
2022/10/05 01:53:39;;;;;;;4.40;4.20;;;;;;;;;;4996902;28;20038;-71
2022/10/05 01:56:48;;;;;;;4.28;4.07;;;;;;;;;;5005944;28;20032;-70
2022/10/05 01:59:17;;;;;;;4.45;4.25;;;;;;;;;;4973610;28;20037;-71
2022/10/05 02:01:52;;;;;;;4.15;3.95;;;;;;;;;;5006065;28;20075;-72
2022/10/05 02:04:46;;;;;;;3.95;3.85;;;;;;;;;;4993072;28;20514;-72
2022/10/05 02:07:19;;;;;;;4.47;4.28;;;;;;;;;;4993885;28;20686;-70
2022/10/05 02:09:50;;;;;;;4.25;4.05;;;;;;;;;;5004500;28;20119;-72
2022/10/05 02:12:20;;;;;;;3.88;3.78;;;;;;;;;;5000035;28;20054;-72
2022/10/05 02:14:51;;;;;;;3.90;3.80;;;;;;;;;;5006554;28;20117;-71
2022/10/05 02:17:22;;;;;;;4.50;4.30;;;;;;;;;;5006169;28;20421;-72
2022/10/05 02:19:55;;;;;;;4.40;4.20;;;;;;;;;;5001511;28;20030;-72
2022/10/05 02:22:31;;;;;;;4.30;4.10;;;;;;;;;;5002655;28;20034;-71
2022/10/05 02:25:01;;;;;;;5.35;4.90;;;;;;;;;;5007464;28;20045;-71
2022/10/05 02:27:36;;;;;;;4.32;4.13;;;;;;;;;;5016513;28;20030;-70
2022/10/05 02:30:06;;;;;;;4.70;4.50;;;;;;;;;;5005102;28;20038;-72
2022/10/05 02:32:58;;;;;;;4.38;4.18;;;;;;;;;;5006135;28;20564;-70
2022/10/05 02:35:25;;;;;;;3.90;3.80;;;;;;;;;;5000762;28;20108;-70
2022/10/05 02:38:06;;;;;;;4.55;4.35;;;;;;;;;;5003539;28;20034;-70
2022/10/05 02:40:53;;;;;;;4.47;4.28;;;;;;;;;;5005933;28;20042;-71
2022/10/05 02:43:51;;;;;;;4.93;4.72;;;;;;;;;;5007350;28;20038;-72
2022/10/05 02:46:25;;;;;;;4.70;4.50;;;;;;;;;;5000243;28;20037;-70
2022/10/05 02:49:26;;;;;;;4.03;3.90;;;;;;;;;;4991232;28;20030;-71
2022/10/05 02:52:08;;;;;;;4.38;4.18;;;;;;;;;;4975658;28;20097;-71
2022/10/05 02:55:23;;;;;;;4.50;4.30;;;;;;;;;;4981757;28;20046;-72
2022/10/05 02:58:02;;;;;;;4.03;3.90;;;;;;;;;;4872766;29;20072;-70
2022/10/05 03:00:33;;;;;;;4.18;3.97;;;;;;;;;;4873113;29;20052;-72
2022/10/05 03:03:14;;;;;;;4.03;3.90;;;;;;;;;;4889165;29;20095;-71
2022/10/05 03:05:42;;;;;;;;;;;;;;;;;;4873041;29;20053;-70
2022/10/05 03:08:13;;;;;;;4.43;4.22;;;;;;;;;;4888376;29;19919;-73
2022/10/05 03:10:50;;;;;;;4.57;4.38;;;;;;;;;;4871778;29;20048;-70
2022/10/05 03:13:48;;;;;;;4.78;4.57;;;;;;;;;;4858478;29;20100;-71
2022/10/05 03:16:34;;;;;;;4.13;3.92;;;;;;;;;;4873894;29;20128;-71
2022/10/05 03:19:36;;;;;;;4.80;4.60;;;;;;;;;;4871524;29;20057;-71
2022/10/05 03:22:37;;;;;;;5.65;5.35;;;;;;;;;;4872704;29;20741;-71
2022/10/05 03:26:02;;;;;;;5.00;4.70;;;;;;;;;;4866545;29;20511;-72
2022/10/05 03:29:01;;;;;;;4.60;4.40;;;;;;;;;;4834753;29;20682;-70
2022/10/05 03:32:07;;;;;;;4.47;4.28;;;;;;;;;;4929885;29;20142;-71
2022/10/05 03:34:47;;;;;;;4.20;4.00;;;;;;;;;;4982304;28;20046;-72
2022/10/05 03:37:20;;;;;;;3.80;3.70;;;;;;;;;;5004170;28;20026;-71
2022/10/05 03:39:53;;;;;;;4.35;4.15;;;;;;;;;;5006572;28;20116;-72
2022/10/05 03:42:29;;;;;;;4.32;4.13;;;;;;;;;;4996916;28;20046;-71
2022/10/05 03:45:08;;;;;;;4.38;4.18;;;;;;;;;;4993554;28;20109;-70
2022/10/05 03:47:59;;;;;;;4.30;4.10;;;;;;;;;;5004722;28;20021;-72
2022/10/05 03:50:41;;;;;;;4.60;4.40;;;;;;;;;;4981427;28;20054;-70
2022/10/05 03:53:30;;;;;;;5.10;4.90;;;;;;;;;;5000962;28;20034;-72
2022/10/05 03:56:08;;;;;;;4.30;4.10;;;;;;;;;;5007477;28;20046;-73
2022/10/05 03:58:59;;;;;;;4.20;4.00;;;;;;;;;;4996763;28;20045;-72
2022/10/05 04:01:36;;;;;;;4.40;4.20;;;;;;;;;;4998106;28;20105;-70
2022/10/05 04:04:05;;;;;;;4.25;4.05;;;;;;;;;;5003737;28;20034;-72
2022/10/05 04:06:43;;;;;;;4.60;4.40;;;;;;;;;;4998046;28;20038;-71
2022/10/05 04:09:33;;;;;;;4.53;4.32;;;;;;;;;;5011921;28;20083;-70
2022/10/05 04:12:13;;;;;;;4.40;4.20;;;;;;;;;;4994968;28;20048;-71
2022/10/05 04:14:48;;;;;;;4.28;4.07;;;;;;;;;;4999418;28;20038;-71
2022/10/05 04:17:30;;;;;;;4.50;4.30;;;;;;;;;;5001119;28;20037;-71
2022/10/05 04:20:17;;;;;;;4.65;4.45;;;;;;;;;;5002380;28;20038;-71
2022/10/05 04:23:22;;;;;;;4.40;4.20;;;;;;;;;;5004041;28;20037;-72
2022/10/05 04:25:52;;;;;;;4.60;4.40;;;;;;;;;;4991248;28;20046;-72
2022/10/05 04:28:31;;;;;;;4.90;4.70;;;;;;;;;;4991994;28;20034;-72
2022/10/05 04:30:59;;;;;;;4.45;4.25;;;;;;;;;;5001392;28;20518;-70
2022/10/05 04:33:26;;;;;;;4.70;4.50;;;;;;;;;;4997235;28;20092;-71
2022/10/05 04:36:19;;;;;;;5.00;4.80;;;;;;;;;;4998582;28;20029;-72
2022/10/05 04:39:14;;;;;;;4.50;4.30;;;;;;;;;;5021933;28;20054;-70
2022/10/05 04:42:05;;;;;;;6.32;6.03;;;;;;;;;;5000158;28;20026;-71
2022/10/05 04:44:48;;;;;;;4.82;4.63;;;;;;;;;;4994063;28;20025;-72
2022/10/05 04:47:40;;;;;;;5.10;4.90;;;;;;;;;;4996479;28;20046;-71
2022/10/05 04:50:46;;;;;;;4.75;4.55;;;;;;;;;;5002989;28;20038;-73
2022/10/05 04:53:23;;;;;;;4.97;4.78;;;;;;;;;;5005157;28;20104;-70
2022/10/05 04:55:52;;;;;;;5.20;5.00;;;;;;;;;;4999984;28;20136;-70
2022/10/05 04:58:25;;;;;;;5.70;5.38;;;;;;;;;;4996953;28;20030;-72
2022/10/05 05:01:16;;;;;;;5.45;5.15;;;;;;;;;;5002106;28;20034;-71
2022/10/05 05:04:07;;;;;;;4.80;4.60;;;;;;;;;;4994267;28;20030;-70
2022/10/05 05:07:00;;;;;;;4.93;4.72;;;;;;;;;;4997309;28;20041;-71
2022/10/05 05:09:29;;;;;;;4.95;4.75;;;;;;;;;;5005363;28;20049;-71
2022/10/05 05:12:07;;;;;;;5.28;5.07;;;;;;;;;;5006381;28;20513;-72
2022/10/05 05:14:57;;;;;;;5.20;5.00;;;;;;;;;;5007763;28;20121;-70
2022/10/05 05:17:31;;;;;;;5.38;5.18;;;;;;;;;;5008123;28;20034;-72
2022/10/05 05:20:17;;;;;;;5.10;4.90;;;;;;;;;;5005157;28;20104;-71
2022/10/05 05:22:52;;;;;;;5.10;4.90;;;;;;;;;;4991453;28;20041;-71
2022/10/05 05:25:30;;;;;;;5.25;5.05;;;;;;;;;;5002924;28;20100;-72
2022/10/05 05:28:17;;;;;;;5.00;4.80;;;;;;;;;;4990219;28;20113;-71
2022/10/05 05:30:50;;;;;;;4.97;4.78;;;;;;;;;;5003094;28;20131;-71
2022/10/05 05:33:43;;;;;;;5.18;4.97;;;;;;;;;;4984430;28;20223;-72
2022/10/05 05:36:17;;;;;;;4.80;4.60;;;;;;;;;;4995169;28;20066;-71
2022/10/05 05:39:07;;;;;;;4.85;4.65;;;;;;;;;;5000643;28;20215;-71
2022/10/05 05:41:47;;;;;;;4.95;4.75;;;;;;;;;;5001654;28;20038;-72
2022/10/05 05:44:23;;;;;;;4.70;4.50;;;;;;;;;;4998388;28;20030;-72
2022/10/05 05:47:02;;;;;;;4.82;4.63;;;;;;;;;;5005263;28;20583;-73
2022/10/05 05:49:34;;;;;;;;;;;;;;;;;;4993114;28;20038;-72
2022/10/05 05:52:14;;;;;;;4.82;4.63;;;;;;;;;;4996018;28;20373;-72
2022/10/05 05:54:47;;;;;;;4.65;4.45;;;;;;;;;;4997479;28;20033;-72
2022/10/05 05:57:26;;;;;;;4.63;4.43;;;;;;;;;;5002831;28;20057;-70
2022/10/05 06:00:19;;;;;;;4.68;4.47;;;;;;;;;;4992270;28;20061;-70
2022/10/05 06:03:55;;;;;;;4.80;4.60;;;;;;;;;;5002639;28;20042;-70
2022/10/05 06:06:25;;;;;;;4.70;4.50;;;;;;;;;;4943479;28;20046;-71
2022/10/05 06:09:28;;;;;;;4.53;4.32;;;;;;;;;;4988409;28;20042;-69
2022/10/05 06:12:26;;;;;;;4.70;4.50;;;;;;;;;;4987382;28;20441;-70
2022/10/05 06:14:57;;;;;;;4.80;4.60;;;;;;;;;;5016608;28;20415;-72
2022/10/05 06:17:32;;;;;;;4.93;4.72;;;;;;;;;;4995985;28;20092;-72
2022/10/05 06:20:02;;;;;;;4.55;4.35;;;;;;;;;;4992606;28;20046;-72
2022/10/05 06:22:33;;;;;;;4.82;4.63;;;;;;;;;;4989283;28;20056;-70
2022/10/05 06:25:14;;;;;;;4.50;4.30;;;;;;;;;;4997426;28;20045;-71
2022/10/05 06:28:11;;;;;;;4.63;4.43;;;;;;;;;;5000135;28;20113;-71
2022/10/05 06:30:43;;;;;;;4.78;4.57;;;;;;;;;;5004171;28;20045;-71
2022/10/05 06:33:28;;;;;;;4.60;4.40;;;;;;;;;;5006196;28;20113;-71
2022/10/05 06:36:25;;;;;;;5.40;5.20;;;;;;;;;;5004578;28;20034;-71
2022/10/05 06:38:59;;;;;;;5.00;4.80;;;;;;;;;;5009512;28;20049;-70
2022/10/05 06:41:56;;;;;;;5.20;5.00;;;;;;;;;;5007221;28;20049;-70
2022/10/05 06:44:52;;;;;;;5.15;4.95;;;;;;;;;;5004554;28;20525;-73
2022/10/05 06:48:09;;;;;;;5.10;4.90;;;;;;;;;;5000251;28;20114;-71
2022/10/05 06:51:01;;;;;;;4.97;4.78;;;;;;;;;;5000100;28;20038;-70
2022/10/05 06:54:12;;;;;;;4.90;4.70;;;;;;;;;;4998471;28;20053;-70
2022/10/05 06:56:42;;;;;;;;;;;;;;;;;;4967512;28;20089;-70
2022/10/05 06:59:14;;;;;;;5.00;4.80;;;;;;;;;;4997536;28;20416;-70
2022/10/05 07:02:03;;;;;;;4.55;4.35;;;;;;;;;;4998878;28;20038;-70
2022/10/05 07:04:58;;;;;;;5.10;4.90;;;;;;;;;;5003137;28;20124;-71
2022/10/05 07:07:41;;;;;;;5.10;4.90;;;;;;;;;;4992714;28;20042;-70
2022/10/05 07:10:41;;;;;;;4.68;4.47;;;;;;;;;;4996830;28;20502;-70
2022/10/05 07:13:32;;;;;;;5.22;5.03;;;;;;;;;;4996928;28;20038;-71
2022/10/05 07:16:29;;;;;;;5.07;4.88;;;;;;;;;;4998643;28;20115;-71
2022/10/05 07:19:24;;;;;;;5.05;4.85;;;;;;;;;;5018469;28;20033;-71
2022/10/05 07:21:59;;;;;;;5.70;5.40;;;;;;;;;;4999475;28;20034;-71
2022/10/05 07:24:32;;;;;;;5.45;5.25;;;;;;;;;;4995287;28;20041;-70
2022/10/05 07:27:04;;;;;;;5.90;5.60;;;;;;;;;;4990083;28;20056;-71
2022/10/05 07:29:53;;;;;;;5.82;5.53;;;;;;;;;;5002557;28;20038;-71
2022/10/05 07:32:42;;;;;;;5.90;5.60;;;;;;;;;;4994831;28;20395;-70
2022/10/05 07:37:52;;;;;;;6.07;5.78;;;;;;;;;;5003157;28;20049;-71
2022/10/05 07:38:06;;;;;;;6.00;5.70;;;;;;;;;;4994824;28;20092;-71
2022/10/05 07:41:04;;;;;;;5.75;5.45;;;;;;;;;;4998166;28;20061;-71
2022/10/05 07:44:10;;;;;;;6.10;5.80;;;;;;;;;;4997085;28;20506;-71
2022/10/05 07:46:50;;;;;;;5.90;5.60;;;;;;;;;;5004025;28;20041;-71
2022/10/05 07:49:32;;;;;;;6.28;5.97;;;;;;;;;;5006939;28;20053;-71
2022/10/05 07:52:10;;;;;;;5.90;5.60;;;;;;;;;;4988254;28;20052;-71
2022/10/05 07:54:35;;;;;;;6.30;6.00;;;;;;;;;;4993736;28;20057;-72
2022/10/05 07:57:30;;;;;;;6.00;5.70;;;;;;;;;;5001816;28;20450;-71
2022/10/05 08:00:03;;;;;;;5.85;5.55;;;;;;;;;;4977396;28;20046;-71
2022/10/05 08:03:14;;;;;;;6.32;6.03;;;;;;;;;;5001781;28;20045;-72
2022/10/05 08:05:41;;;;;;;6.07;5.78;;;;;;;;;;4926460;29;20513;-71
2022/10/05 08:08:09;;;;;;;5.78;5.47;;;;;;;;;;4926570;29;20096;-71
2022/10/05 08:10:48;;;;;;;6.20;5.90;;;;;;;;;;4927580;29;20051;-71
2022/10/05 08:13:54;;;;;;;6.22;5.93;;;;;;;;;;4925621;29;20042;-71
2022/10/05 08:16:25;;;;;;;5.90;5.60;;;;;;;;;;4871888;29;20052;-71
2022/10/05 08:19:05;;;;;;;6.68;6.28;;;;;;;;;;4869351;29;20069;-71
2022/10/05 08:21:38;;;;;;;6.18;5.88;;;;;;;;;;4867117;29;20049;-71
2022/10/05 08:24:09;;;;;;;6.00;5.70;;;;;;;;;;4856126;29;20045;-71
2022/10/05 08:26:43;;;;;;;6.28;5.97;;;;;;;;;;4872055;29;20085;-71
2022/10/05 08:29:34;;;;;;;5.80;5.50;;;;;;;;;;4871690;29;20124;-70
2022/10/05 08:32:04;;;;;;;5.97;5.68;;;;;;;;;;4871431;29;20041;-70
2022/10/05 08:34:39;;;;;;;5.60;5.40;;;;;;;;;;4871191;29;20053;-70
2022/10/05 08:37:21;;;;;;;7.00;6.47;;;;;;;;;;4872370;29;20208;-71
2022/10/05 08:40:20;;;;;;;5.65;5.43;;;;;;;;;;4871963;29;20104;-71
2022/10/05 08:43:20;;;;;;;5.60;5.30;;;;;;;;;;4897633;29;20207;-71
2022/10/05 08:46:06;;;;;;;6.00;5.70;;;;;;;;;;4915538;29;20760;-71
2022/10/05 08:48:56;;;;;;;5.85;5.55;;;;;;;;;;4917954;29;20063;-71
2022/10/05 08:51:27;;;;;;;6.07;5.78;;;;;;;;;;4921616;29;20075;-71
2022/10/05 08:54:32;;;;;;;5.60;5.30;;;;;;;;;;4992078;28;20502;-71
2022/10/05 08:57:30;;;;;;;7.68;7.18;;;;;;;;;;4993561;28;20050;-71
2022/10/05 09:00:17;;;;;;;5.83;5.53;;;;;;;;;;4982501;28;20040;-71
2022/10/05 09:03:15;;;;;;;6.00;5.70;;;;;;;;;;5002009;28;20029;-70
2022/10/05 09:06:13;;;;;;;5.80;5.50;;;;;;;;;;4948451;28;20432;-71
2022/10/05 09:08:57;;;;;;;5.60;5.40;;;;;;;;;;4999440;28;20045;-71
2022/10/05 09:11:38;;;;;;;5.93;5.63;;;;;;;;;;5000632;28;20034;-71
2022/10/05 09:14:22;;;;;;;5.95;5.65;;;;;;;;;;5006903;28;20037;-72
2022/10/05 09:17:16;;;;;;;5.75;5.45;;;;;;;;;;5004472;28;20038;-72
2022/10/05 09:19:52;;;;;;;6.00;5.70;;;;;;;;;;5007462;28;20057;-72
2022/10/05 09:22:39;;;;;;;6.43;6.13;;;;;;;;;;4996594;28;20037;-72
2022/10/05 09:25:26;;;;;;;6.20;5.90;;;;;;;;;;5002982;28;20062;-73
2022/10/05 09:28:00;;;;;;;6.35;6.05;;;;;;;;;;5003514;28;20041;-72
2022/10/05 09:30:50;;;;;;;6.10;5.80;;;;;;;;;;4994365;28;20527;-72
2022/10/05 09:33:25;;;;;;;6.15;5.85;;;;;;;;;;5003545;28;20041;-73
2022/10/05 09:36:14;;;;;;;6.55;6.25;;;;;;;;;;5001145;28;20034;-72
2022/10/05 09:38:57;;;;;;;5.38;5.18;;;;;;;;;;4996311;28;20482;-73
2022/10/05 09:41:29;;;;;;;6.63;6.32;;;;;;;;;;5002325;28;20092;-71
2022/10/05 09:44:17;;;;;;;6.38;6.07;;;;;;;;;;4997215;28;20038;-72
2022/10/05 09:47:02;;;;;;;6.00;5.70;;;;;;;;;;4990537;28;20088;-73
2022/10/05 09:49:43;;;;;;;6.00;5.70;;;;;;;;;;5000827;28;20029;-73
2022/10/05 09:52:33;;;;;;;6.47;6.18;;;;;;;;;;4993762;28;20042;-71
2022/10/05 09:55:27;;;;;;;5.95;5.65;;;;;;;;;;5001158;28;20042;-72
2022/10/05 09:58:02;;;;;;;6.40;6.10;;;;;;;;;;4999205;28;20083;-72
2022/10/05 10:01:01;;;;;;;6.28;5.97;;;;;;;;;;4996604;28;20673;-71
2022/10/05 10:03:48;;;;;;;6.40;6.10;;;;;;;;;;5000485;28;20038;-72
2022/10/05 10:06:26;;;;;;;6.55;6.25;;;;;;;;;;5002278;28;20025;-74
2022/10/05 10:09:16;;;;;;;6.30;6.00;;;;;;;;;;5003725;28;20034;-72
2022/10/05 10:12:17;;;;;;;6.28;5.97;;;;;;;;;;5002280;28;20117;-72
2022/10/05 10:15:09;;;;;;;6.70;6.40;;;;;;;;;;5001340;28;20406;-72
2022/10/05 10:17:43;;;;;;;6.45;6.15;;;;;;;;;;4995548;28;20540;-72
2022/10/05 10:20:46;;;;;;;6.10;5.80;;;;;;;;;;5004737;28;20046;-74
2022/10/05 10:23:37;;;;;;;5.70;5.40;;;;;;;;;;4995482;28;20066;-72
2022/10/05 10:26:35;;;;;;;5.80;5.50;;;;;;;;;;5001551;28;20042;-72
2022/10/05 10:29:03;;;;;;;5.97;5.68;;;;;;;;;;5001134;28;20044;-72
2022/10/05 10:31:43;;;;;;;5.40;5.20;;;;;;;;;;5006688;28;20042;-73
2022/10/05 10:34:33;;;;;;;5.03;4.82;;;;;;;;;;5001019;28;20178;-73
2022/10/05 10:36:59;;;;;;;6.22;5.93;;;;;;;;;;5000151;28;20105;-74
2022/10/05 10:39:30;;;;;;;5.53;5.32;;;;;;;;;;4985468;28;20125;-72
2022/10/05 10:42:16;;;;;;;5.32;5.13;;;;;;;;;;4995951;28;20045;-73
2022/10/05 10:44:58;;;;;;;5.80;5.50;;;;;;;;;;4995058;28;20041;-74
2022/10/05 10:47:41;;;;;;;6.28;5.97;;;;;;;;;;4995854;28;20026;-74
2022/10/05 10:50:32;;;;;;;6.07;5.78;;;;;;;;;;4995906;28;20121;-72
2022/10/05 10:53:16;;;;;;;6.00;5.70;;;;;;;;;;4995316;28;20034;-73
2022/10/05 10:55:50;;;;;;;6.20;5.90;;;;;;;;;;4997107;28;20034;-74
2022/10/05 10:58:39;;;;;;;6.20;5.90;;;;;;;;;;5003373;28;20026;-73
2022/10/05 11:01:24;;;;;;;6.55;6.25;;;;;;;;;;5001811;28;20108;-72
2022/10/05 11:04:21;;;;;;;6.00;5.70;;;;;;;;;;4994428;28;20034;-73
2022/10/05 11:07:01;;;;;;;6.22;5.93;;;;;;;;;;4992208;28;20165;-73
2022/10/05 11:09:32;;;;;;;6.30;6.00;;;;;;;;;;4964800;28;1145139;-73
2022/10/05 11:12:17;;;;;;;5.90;5.60;;;;;;;;;;5001103;28;20029;-73
2022/10/05 11:15:02;;;;;;;6.10;5.80;;;;;;;;;;5007884;28;20033;-73
2022/10/05 11:18:05;;;;;;;6.10;5.80;;;;;;;;;;4997737;28;20065;-72
2022/10/05 11:20:56;;;;;;;5.70;5.40;;;;;;;;;;5000792;28;20589;-74
2022/10/05 11:23:48;;;;;;;5.80;5.50;;;;;;;;;;4998378;28;20045;-73
2022/10/05 11:26:38;;;;;;;5.68;5.40;;;;;;;;;;4946739;28;20055;-73
2022/10/05 11:29:32;;;;;;;5.38;5.18;;;;;;;;;;4949226;29;20051;-72
2022/10/05 11:32:40;;;;;;;5.70;5.40;;;;;;;;;;4948753;29;20662;-74
2022/10/05 11:35:11;;;;;;;5.83;5.53;;;;;;;;;;4947491;28;20483;-74
2022/10/05 11:37:48;;;;;;;5.85;5.55;;;;;;;;;;4948962;29;20122;-72
2022/10/05 11:40:13;;;;;;;5.80;5.50;;;;;;;;;;4949146;29;20039;-75
2022/10/05 11:43:13;;;;;;;5.80;5.50;;;;;;;;;;4947001;28;20519;-73
2022/10/05 11:45:47;;;;;;;5.38;5.18;;;;;;;;;;4948968;29;20513;-73
2022/10/05 11:48:34;;;;;;;5.30;5.10;;;;;;;;;;4944118;29;20063;-72
2022/10/05 11:51:30;;;;;;;5.65;5.38;;;;;;;;;;4946479;28;20074;-74
2022/10/05 11:54:16;;;;;;;5.90;5.60;;;;;;;;;;4947981;29;20043;-73
2022/10/05 11:56:48;;;;;;;6.07;5.78;;;;;;;;;;4945409;29;20444;-73
2022/10/05 11:59:21;;;;;;;6.00;5.70;;;;;;;;;;4946736;28;20048;-73
2022/10/05 12:02:20;;;;;;;5.90;5.60;;;;;;;;;;4946722;29;20035;-73
2022/10/05 12:05:10;;;;;;;6.07;5.78;;;;;;;;;;4996668;28;20038;-73
2022/10/05 12:07:48;;;;;;;5.80;5.50;;;;;;;;;;5001116;28;20038;-72
2022/10/05 12:10:29;;;;;;;6.20;5.90;;;;;;;;;;4999660;28;20121;-75
2022/10/05 12:13:18;;;;;;;6.32;6.03;;;;;;;;;;5002047;28;20057;-72
2022/10/05 12:16:03;;;;;;;6.20;5.90;;;;;;;;;;5007163;28;20397;-74
2022/10/05 12:18:29;;;;;;;6.30;6.00;;;;;;;;;;4997174;28;20037;-73
2022/10/05 12:21:16;;;;;;;6.10;5.80;;;;;;;;;;5001908;28;20120;-73
2022/10/05 12:24:14;;;;;;;6.22;5.93;;;;;;;;;;4999283;28;20038;-72
2022/10/05 12:26:48;;;;;;;6.20;5.90;;;;;;;;;;4979069;28;20139;-73
2022/10/05 12:29:35;;;;;;;6.13;5.82;;;;;;;;;;4976924;28;20046;-71
2022/10/05 12:32:10;;;;;;;6.00;5.70;;;;;;;;;;4985578;28;20054;-70
2022/10/05 12:34:51;;;;;;;6.10;5.80;;;;;;;;;;4975652;28;20037;-71
2022/10/05 12:37:25;;;;;;;6.10;5.80;;;;;;;;;;4987999;28;20054;-70
2022/10/05 12:40:01;;;;;;;6.30;6.00;;;;;;;;;;4980838;28;20038;-71
2022/10/05 12:42:35;;;;;;;6.40;6.10;;;;;;;;;;4967342;28;20039;-71
2022/10/05 12:45:22;;;;;;;6.30;6.00;;;;;;;;;;4972129;28;20125;-72
2022/10/05 12:47:57;;;;;;;6.30;6.00;;;;;;;;;;4979510;28;20050;-71
2022/10/05 12:50:23;;;;;;;6.05;5.75;;;;;;;;;;4976110;28;20178;-71
2022/10/05 12:53:09;;;;;;;6.30;6.00;;;;;;;;;;4981018;28;20050;-71
2022/10/05 12:55:44;;;;;;;6.43;6.13;;;;;;;;;;4982583;28;20057;-71
2022/10/05 12:58:34;;;;;;;6.30;6.00;;;;;;;;;;4975142;28;20490;-72
2022/10/05 13:01:25;;;;;;;6.10;5.80;;;;;;;;;;4977129;28;20050;-71
2022/10/05 13:04:05;;;;;;;5.97;5.68;;;;;;;;;;4984801;28;20116;-71
2022/10/05 13:06:33;;;;;;;6.00;5.70;;;;;;;;;;5005163;28;20592;-72
2022/10/05 13:09:07;;;;;;;6.20;5.90;;;;;;;;;;4997208;28;20060;-71
2022/10/05 13:11:51;;;;;;;6.35;6.05;;;;;;;;;;5000039;28;20508;-72
2022/10/05 13:14:44;;;;;;;6.15;5.85;;;;;;;;;;4996335;28;20040;-71
2022/10/05 13:17:24;;;;;;;6.38;6.07;;;;;;;;;;5002023;28;20540;-72
2022/10/05 13:19:56;;;;;;;6.40;6.10;;;;;;;;;;5004488;28;20030;-72
2022/10/05 13:22:34;;;;;;;6.32;6.03;;;;;;;;;;4997431;28;20057;-71
2022/10/05 13:25:12;;;;;;;6.40;6.10;;;;;;;;;;4996269;28;20046;-72
2022/10/05 13:27:50;;;;;;;6.30;6.00;;;;;;;;;;4999913;28;20129;-72
2022/10/05 13:30:20;;;;;;;6.35;6.05;;;;;;;;;;4999706;28;20030;-73
2022/10/05 13:32:58;;;;;;;6.22;5.93;;;;;;;;;;4995601;28;20092;-72
2022/10/05 13:35:33;;;;;;;6.10;5.80;;;;;;;;;;4990995;28;20637;-72
2022/10/05 13:38:26;;;;;;;6.22;5.93;;;;;;;;;;4997381;28;20062;-72
2022/10/05 13:41:16;;;;;;;6.18;5.88;;;;;;;;;;4999401;28;20030;-71
2022/10/05 13:44:29;;;;;;;6.30;6.00;;;;;;;;;;4995017;28;20026;-73
2022/10/05 13:47:03;;;;;;;6.20;5.90;;;;;;;;;;4997337;28;20038;-72
2022/10/05 13:49:52;;;;;;;6.70;6.40;;;;;;;;;;4998269;28;20042;-72
2022/10/05 13:52:27;;;;;;;6.57;6.28;;;;;;;;;;4998523;28;20125;-72
2022/10/05 13:55:15;;;;;;;6.30;6.00;;;;;;;;;;5008394;28;20052;-72
2022/10/05 13:57:48;;;;;;;6.70;6.40;;;;;;;;;;4997603;28;20030;-71
2022/10/05 14:00:17;;;;;;;6.55;6.25;;;;;;;;;;5003003;28;20030;-71
2022/10/05 14:02:46;;;;;;;6.78;6.47;;;;;;;;;;5000411;28;20405;-72
2022/10/05 14:05:22;;;;;;;6.40;6.10;;;;;;;;;;5001555;28;20109;-71
2022/10/05 14:08:01;;;;;;;5.90;5.60;;;;;;;;;;5002768;28;20490;-72
2022/10/05 14:10:30;;;;;;;6.10;5.80;;;;;;;;;;5004120;28;20386;-71
2022/10/05 14:12:56;;;;;;;5.78;5.47;;;;;;;;;;4989517;28;20037;-71
2022/10/05 14:15:35;;;;;;;5.65;5.35;;;;;;;;;;4998729;28;20038;-71
2022/10/05 14:18:23;;;;;;;6.05;5.75;;;;;;;;;;5000672;28;20038;-73
2022/10/05 14:21:06;;;;;;;6.10;5.80;;;;;;;;;;4999715;28;20119;-72
2022/10/05 14:23:32;;;;;;;6.00;5.70;;;;;;;;;;4998755;28;20289;-72
2022/10/05 14:25:58;;;;;;;5.70;5.43;;;;;;;;;;5002838;28;20057;-71
2022/10/05 14:28:29;;;;;;;5.50;5.30;;;;;;;;;;5000726;28;20088;-72
2022/10/05 14:30:58;;;;;;;6.18;5.88;;;;;;;;;;5003024;28;20064;-72
2022/10/05 14:33:31;;;;;;;6.30;6.00;;;;;;;;;;5000512;28;20045;-72
2022/10/05 14:35:58;;;;;;;6.50;6.20;;;;;;;;;;4996750;28;20081;-72
2022/10/05 14:38:48;;;;;;;5.65;5.40;;;;;;;;;;4991084;28;20058;-73
2022/10/05 14:41:17;;;;;;;6.00;5.70;;;;;;;;;;5000708;28;20034;-72
2022/10/05 14:44:05;;;;;;;5.80;5.50;;;;;;;;;;4983584;28;20033;-72
2022/10/05 14:46:31;;;;;;;6.20;5.90;;;;;;;;;;5004293;28;20475;-72
2022/10/05 14:49:21;;;;;;;6.40;6.10;;;;;;;;;;5002090;28;20033;-71
2022/10/05 14:51:52;;;;;;;6.22;5.93;;;;;;;;;;4993058;28;20030;-71
2022/10/05 14:54:44;;;;;;;6.00;5.70;;;;;;;;;;5000948;28;20033;-71
2022/10/05 14:57:34;;;;;;;6.22;5.93;;;;;;;;;;5003501;28;20120;-73
2022/10/05 15:00:00;;;;;;;6.30;6.00;;;;;;;;;;5021219;28;20033;-72
2022/10/05 15:02:46;;;;;;;6.10;5.80;;;;;;;;;;5000481;28;20117;-71
2022/10/05 15:05:25;;;;;;;6.10;5.80;;;;;;;;;;4997393;28;20065;-71
2022/10/05 15:07:56;;;;;;;6.30;6.00;;;;;;;;;;5000052;28;20410;-72
2022/10/05 15:10:45;;;;;;;6.63;6.32;;;;;;;;;;5002394;28;20497;-71
2022/10/05 15:13:15;;;;;;;6.45;6.15;;;;;;;;;;5006877;28;20087;-72
2022/10/05 15:15:53;;;;;;;6.68;6.38;;;;;;;;;;5002794;28;20034;-72
2022/10/05 15:19:01;;;;;;;6.65;6.35;;;;;;;;;;5005034;28;20134;-72
2022/10/05 15:21:41;;;;;;;7.30;6.90;;;;;;;;;;5002087;28;20543;-72
2022/10/05 15:24:21;;;;;;;;;;;;;;;;;;5000209;28;20306;-71
2022/10/05 15:26:53;;;;;;;6.70;6.40;;;;;;;;;;5001573;28;19924;-71
2022/10/05 15:29:37;;;;;;;6.60;6.30;;;;;;;;;;4996036;28;20120;-72
2022/10/05 15:32:14;;;;;;;6.15;5.85;;;;;;;;;;4998803;28;20037;-71
2022/10/05 15:35:24;;;;;;;6.50;6.20;;;;;;;;;;5000206;28;20049;-71
2022/10/05 15:38:12;;;;;;;6.78;6.47;;;;;;;;;;5023576;28;20037;-72
2022/10/05 15:40:50;;;;;;;6.90;6.60;;;;;;;;;;5007777;28;20042;-72
2022/10/05 15:43:21;;;;;;;6.40;6.10;;;;;;;;;;5012858;28;20034;-73
2022/10/05 15:45:52;;;;;;;6.35;6.05;;;;;;;;;;4998415;28;20057;-72
2022/10/05 15:48:20;;;;;;;6.85;6.55;;;;;;;;;;5004218;28;20026;-71
2022/10/05 15:51:14;;;;;;;6.47;6.18;;;;;;;;;;5002507;28;20049;-72
2022/10/05 15:53:45;;;;;;;6.80;6.50;;;;;;;;;;5001011;28;20061;-71
2022/10/05 15:56:37;;;;;;;6.80;6.50;;;;;;;;;;4994158;28;20035;-71
2022/10/05 15:59:17;;;;;;;6.72;6.43;;;;;;;;;;5003534;28;20035;-72
2022/10/05 16:01:48;;;;;;;6.90;6.60;;;;;;;;;;4994771;28;20030;-72
2022/10/05 16:04:22;;;;;;;6.50;6.20;;;;;;;;;;5004707;28;20474;-71
2022/10/05 16:10:07;;;;;;;6.30;6.00;;;;;;;;;;4993262;28;20034;-72
2022/10/05 16:13:10;;;;;;;5.80;5.50;;;;;;;;;;5005234;28;20575;-72
2022/10/05 16:15:48;;;;;;;6.00;5.70;;;;;;;;;;4993116;28;20050;-71
2022/10/05 16:18:14;;;;;;;6.10;5.80;;;;;;;;;;4996330;28;20033;-71